Time;durP1;ratioP1;P1;durP2;ratioP2;P2;SDS_P1;SDS_P2;PMS_P1;PMS_P2;Temp;Humidity;BMP_temperature;BMP_pressure;BME280_temperature;BME280_humidity;BME280_pressure;Samples;Min_cycle;Max_cycle;Signal;HPM_P1;HPM_P2
2023/06/16 00:00:35;;;;;;;11.18;9.30;;;17.10;99.90;;;;;;5095042;28;20094;-76
2023/06/16 00:03:01;;;;;;;11.02;8.55;;;17.10;99.90;;;;;;5095265;28;20040;-76
2023/06/16 00:05:28;;;;;;;11.52;9.35;;;17.10;99.90;;;;;;5093983;28;20048;-76
2023/06/16 00:07:59;;;;;;;10.88;8.93;;;17.10;99.90;;;;;;5094039;28;20115;-75
2023/06/16 00:10:25;;;;;;;11.80;9.45;;;17.10;99.90;;;;;;5093483;28;20048;-75
2023/06/16 00:12:51;;;;;;;12.05;9.48;;;17.00;99.90;;;;;;5094935;28;20032;-75
2023/06/16 00:15:16;;;;;;;10.30;9.18;;;17.00;99.90;;;;;;5093483;28;20044;-75
2023/06/16 00:17:46;;;;;;;11.65;9.85;;;17.00;99.90;;;;;;5093485;28;20048;-75
2023/06/16 00:20:19;;;;;;;12.35;10.13;;;17.00;99.90;;;;;;5093763;28;20075;-75
2023/06/16 00:22:47;;;;;;;15.45;10.43;;;17.00;99.90;;;;;;5093742;28;20484;-75
2023/06/16 00:25:22;;;;;;;12.35;10.20;;;17.00;99.90;;;;;;5093466;28;20071;-75
2023/06/16 00:27:48;;;;;;;15.30;12.02;;;17.00;99.90;;;;;;5093266;28;20098;-75
2023/06/16 00:30:14;;;;;;;13.43;10.95;;;16.90;99.90;;;;;;5094505;28;20079;-75
2023/06/16 00:32:40;;;;;;;15.82;11.90;;;16.80;99.90;;;;;;5093535;28;20044;-75
2023/06/16 00:35:06;;;;;;;15.65;11.57;;;16.80;99.90;;;;;;5094433;28;20488;-75
2023/06/16 00:37:31;;;;;;;15.82;12.43;;;16.90;99.90;;;;;;5094510;28;20055;-76
2023/06/16 00:39:57;;;;;;;15.25;11.52;;;16.90;99.90;;;;;;5093001;28;20408;-76
2023/06/16 00:42:23;;;;;;;16.42;11.85;;;16.90;99.90;;;;;;5094201;28;20043;-76
2023/06/16 00:44:48;;;;;;;14.55;11.10;;;16.90;99.90;;;;;;5094349;28;20046;-76
2023/06/16 00:47:14;;;;;;;14.48;11.05;;;16.90;99.90;;;;;;5094057;28;20051;-76
2023/06/16 00:49:40;;;;;;;14.05;11.50;;;16.90;99.90;;;;;;5094115;28;20101;-76
2023/06/16 00:52:09;;;;;;;13.93;11.02;;;16.90;99.90;;;;;;5094009;28;20052;-76
2023/06/16 00:54:36;;;;;;;14.10;12.07;;;16.90;99.90;;;;;;5094155;28;20138;-76
2023/06/16 00:57:02;;;;;;;15.70;11.55;;;16.90;99.90;;;;;;5094018;28;20393;-76
2023/06/16 00:59:28;;;;;;;15.07;11.73;;;16.80;99.90;;;;;;5094013;28;20498;-76
2023/06/16 01:01:55;;;;;;;14.27;11.82;;;16.80;99.90;;;;;;5093992;28;20044;-76
2023/06/16 01:04:25;;;;;;;14.13;12.07;;;16.80;99.90;;;;;;5093824;28;20054;-76
2023/06/16 01:07:09;;;;;;;14.10;12.05;;;16.80;99.90;;;;;;5094005;28;20036;-76
2023/06/16 01:10:02;;;;;;;14.30;12.25;;;16.70;99.90;;;;;;5094101;28;20077;-76
2023/06/16 01:12:40;;;;;;;13.85;12.35;;;16.70;99.90;;;;;;5093912;28;20069;-76
2023/06/16 01:15:13;;;;;;;16.08;14.40;;;16.70;99.90;;;;;;5093656;28;20518;-76
2023/06/16 01:17:43;;;;;;;18.02;14.75;;;16.70;99.90;;;;;;5093449;28;20063;-76
2023/06/16 01:20:26;;;;;;;21.20;14.68;;;16.70;99.90;;;;;;5092406;28;20036;-76
2023/06/16 01:23:14;;;;;;;16.83;13.88;;;16.60;99.90;;;;;;5093493;28;20044;-75
2023/06/16 01:25:43;;;;;;;20.98;15.05;;;16.70;99.90;;;;;;5093786;28;20040;-76
2023/06/16 01:28:11;;;;;;;17.95;14.88;;;16.70;99.90;;;;;;5092648;28;20126;-76
2023/06/16 01:30:42;;;;;;;17.33;15.52;;;16.70;99.90;;;;;;5093402;28;20127;-76
2023/06/16 01:33:09;;;;;;;17.17;14.85;;;16.60;99.90;;;;;;5093678;28;20494;-76
2023/06/16 01:35:36;;;;;;;18.00;15.63;;;16.60;99.90;;;;;;5093699;28;20048;-76
2023/06/16 01:38:02;;;;;;;18.70;16.30;;;16.60;99.90;;;;;;5093521;28;20115;-76
2023/06/16 01:40:29;;;;;;;20.40;17.17;;;16.60;99.90;;;;;;5092251;28;20479;-76
2023/06/16 01:42:56;;;;;;;20.45;16.38;;;16.60;99.90;;;;;;5093497;28;20412;-76
2023/06/16 01:45:24;;;;;;;20.80;17.08;;;16.60;99.90;;;;;;5093630;28;20040;-76
2023/06/16 01:47:50;;;;;;;20.27;17.25;;;16.60;99.90;;;;;;5092330;28;20055;-76
2023/06/16 01:50:16;;;;;;;21.27;17.20;;;16.50;99.90;;;;;;5093215;28;20048;-76
2023/06/16 01:52:41;;;;;;;22.08;16.95;;;16.50;99.90;;;;;;5093516;28;20124;-76
2023/06/16 01:55:08;;;;;;;20.95;17.67;;;16.50;99.90;;;;;;5093347;28;20043;-76
2023/06/16 01:57:35;;;;;;;22.23;17.85;;;16.50;99.90;;;;;;5092416;28;20047;-76
2023/06/16 02:00:19;;;;;;;20.67;17.33;;;16.40;99.90;;;;;;5093289;28;20113;-76
2023/06/16 02:03:15;;;;;;;19.55;15.10;;;16.40;99.90;;;;;;5092219;28;20052;-76
2023/06/16 02:05:44;;;;;;;21.83;16.17;;;16.30;99.90;;;;;;5093535;28;20076;-76
2023/06/16 02:08:12;;;;;;;21.05;15.75;;;16.30;99.90;;;;;;5093079;28;20421;-76
2023/06/16 02:10:38;;;;;;;19.50;15.60;;;16.30;99.90;;;;;;5093308;28;20040;-76
2023/06/16 02:13:05;;;;;;;20.23;16.30;;;16.30;99.90;;;;;;5093096;28;20071;-76
2023/06/16 02:15:32;;;;;;;17.90;15.00;;;16.20;99.90;;;;;;5093356;28;20066;-76
2023/06/16 02:17:58;;;;;;;19.25;15.70;;;16.20;99.90;;;;;;5093371;28;20115;-76
2023/06/16 02:20:27;;;;;;;19.23;15.20;;;16.10;99.90;;;;;;5093333;28;20111;-76
2023/06/16 02:22:54;;;;;;;20.98;15.13;;;16.20;99.90;;;;;;5092070;28;20040;-76
2023/06/16 02:25:20;;;;;;;20.60;17.85;;;16.20;99.90;;;;;;5093147;28;20482;-76
2023/06/16 02:27:47;;;;;;;22.10;19.15;;;16.20;99.90;;;;;;5093004;28;20502;-76
2023/06/16 02:30:13;;;;;;;21.17;18.85;;;16.20;99.90;;;;;;5095243;28;20127;-76
2023/06/16 02:32:39;;;;;;;23.65;18.88;;;16.20;99.90;;;;;;5095461;28;20051;-76
2023/06/16 02:35:08;;;;;;;25.60;19.00;;;16.20;99.90;;;;;;5096820;28;20043;-76
2023/06/16 02:37:35;;;;;;;21.33;17.75;;;16.20;99.90;;;;;;5095482;28;20044;-76
2023/06/16 02:40:04;;;;;;;25.02;20.17;;;16.30;99.90;;;;;;5095478;28;20125;-76
2023/06/16 02:42:30;;;;;;;20.42;17.15;;;16.20;99.90;;;;;;5096727;28;20040;-76
2023/06/16 02:44:55;;;;;;;23.25;18.63;;;16.20;99.90;;;;;;5095505;28;20487;-76
2023/06/16 02:47:21;;;;;;;23.45;18.15;;;16.20;99.90;;;;;;5096338;28;20102;-76
2023/06/16 02:49:48;;;;;;;22.42;17.88;;;16.20;99.90;;;;;;5096327;28;20040;-76
2023/06/16 02:52:14;;;;;;;18.42;16.33;;;16.10;99.90;;;;;;5095514;28;20091;-76
2023/06/16 02:54:40;;;;;;;24.30;17.52;;;16.10;99.90;;;;;;5096423;28;20106;-76
2023/06/16 02:57:07;;;;;;;17.13;15.32;;;16.10;99.90;;;;;;5094884;28;20446;-76
2023/06/16 02:59:33;;;;;;;21.30;16.98;;;16.10;99.90;;;;;;5094998;28;20048;-76
2023/06/16 03:01:59;;;;;;;18.27;16.25;;;16.10;99.90;;;;;;5095897;28;20044;-76
2023/06/16 03:04:25;;;;;;;21.00;16.92;;;16.00;99.90;;;;;;5094281;28;20040;-76
2023/06/16 03:06:57;;;;;;;19.70;16.83;;;16.00;99.90;;;;;;5093249;28;20036;-76
2023/06/16 03:09:26;;;;;;;19.23;15.20;;;16.00;99.90;;;;;;5095402;28;20044;-76
2023/06/16 03:11:53;;;;;;;19.20;15.35;;;15.90;99.90;;;;;;5096139;28;20048;-76
2023/06/16 03:14:20;;;;;;;20.30;15.57;;;16.00;99.90;;;;;;5094757;28;20084;-76
2023/06/16 03:16:50;;;;;;;18.95;13.88;;;15.90;99.90;;;;;;5095908;28;20048;-76
2023/06/16 03:19:17;;;;;;;16.23;13.98;;;16.00;99.90;;;;;;5095741;28;20044;-76
2023/06/16 03:21:44;;;;;;;19.48;13.90;;;16.00;99.90;;;;;;5095538;28;20381;-76
2023/06/16 03:24:13;;;;;;;18.30;15.93;;;16.00;99.90;;;;;;5094078;28;20060;-76
2023/06/16 03:26:39;;;;;;;19.40;14.88;;;16.00;99.90;;;;;;5095808;28;20117;-76
2023/06/16 03:29:06;;;;;;;17.83;15.85;;;16.00;99.90;;;;;;5095527;28;20044;-76
2023/06/16 03:31:32;;;;;;;20.83;16.73;;;16.10;99.90;;;;;;5094142;28;20128;-76
2023/06/16 03:33:58;;;;;;;21.38;16.20;;;16.10;99.90;;;;;;5095570;28;20079;-76
2023/06/16 03:36:25;;;;;;;18.02;16.10;;;16.10;99.90;;;;;;5094028;28;20109;-76
2023/06/16 03:38:51;;;;;;;21.10;16.20;;;16.10;99.90;;;;;;5094103;28;20043;-76
2023/06/16 03:41:17;;;;;;;17.95;14.88;;;16.10;99.90;;;;;;5094257;28;20048;-76
2023/06/16 03:43:42;;;;;;;18.40;14.45;;;16.10;99.90;;;;;;5094029;28;20063;-76
2023/06/16 03:46:08;;;;;;;17.55;14.80;;;16.10;99.90;;;;;;5095157;28;20044;-76
2023/06/16 03:48:33;;;;;;;18.23;15.23;;;16.10;99.90;;;;;;5093732;28;20040;-77
2023/06/16 03:51:00;;;;;;;17.90;15.20;;;16.20;99.90;;;;;;5094852;28;20127;-76
2023/06/16 03:53:27;;;;;;;19.45;14.25;;;16.20;99.90;;;;;;5094974;28;20509;-76
2023/06/16 03:55:52;;;;;;;15.98;11.93;;;16.20;99.90;;;;;;5093810;28;20044;-76
2023/06/16 03:58:18;;;;;;;16.63;13.48;;;16.20;99.90;;;;;;5093608;28;20126;-76
2023/06/16 04:00:44;;;;;;;14.18;12.57;;;16.20;99.90;;;;;;5093709;28;20079;-76
2023/06/16 04:03:15;;;;;;;16.02;13.65;;;16.20;99.90;;;;;;5093397;28;20403;-76
2023/06/16 04:05:41;;;;;;;19.83;15.50;;;16.20;99.90;;;;;;5095002;28;20055;-76
2023/06/16 04:08:07;;;;;;;20.77;16.00;;;16.20;99.90;;;;;;5094795;28;20048;-76
2023/06/16 04:10:33;;;;;;;20.35;15.73;;;16.30;99.90;;;;;;5094661;28;20039;-76
2023/06/16 04:12:59;;;;;;;19.85;16.42;;;16.40;99.90;;;;;;5094833;28;20449;-76
2023/06/16 04:15:24;;;;;;;20.80;14.65;;;16.50;99.90;;;;;;5094680;28;20040;-76
2023/06/16 04:17:50;;;;;;;20.30;14.77;;;16.60;99.90;;;;;;5094495;28;20052;-76
2023/06/16 04:20:16;;;;;;;17.55;15.65;;;16.60;99.90;;;;;;5094526;28;20032;-76
2023/06/16 04:22:42;;;;;;;16.27;13.80;;;16.70;99.90;;;;;;5093143;28;20040;-76
2023/06/16 04:25:11;;;;;;;17.58;12.82;;;16.90;99.90;;;;;;5094319;28;20145;-76
2023/06/16 04:27:37;;;;;;;16.35;13.00;;;16.90;99.90;;;;;;5094387;28;20403;-77
2023/06/16 04:30:06;;;;;;;20.40;13.13;;;17.00;99.90;;;;;;5093029;28;20044;-76
2023/06/16 04:32:36;;;;;;;16.33;13.00;;;17.10;99.90;;;;;;5094408;28;20043;-76
2023/06/16 04:35:06;;;;;;;15.45;11.90;;;17.20;99.90;;;;;;5094430;28;20044;-76
2023/06/16 04:37:33;;;;;;;14.88;12.13;;;17.30;99.90;;;;;;5094472;28;20036;-76
2023/06/16 04:39:59;;;;;;;15.57;12.32;;;17.30;99.90;;;;;;5094344;28;20048;-76
2023/06/16 04:42:24;;;;;;;13.77;11.88;;;17.40;99.90;;;;;;5094336;28;20128;-76
2023/06/16 04:44:50;;;;;;;15.70;12.82;;;17.60;99.90;;;;;;5092751;28;20071;-76
2023/06/16 04:47:17;;;;;;;15.98;12.82;;;17.70;99.90;;;;;;5094283;28;20094;-76
2023/06/16 04:49:43;;;;;;;17.13;12.18;;;17.80;99.90;;;;;;5092774;28;20105;-76
2023/06/16 04:52:09;;;;;;;13.80;10.98;;;17.90;99.90;;;;;;5092141;28;20047;-76
2023/06/16 04:54:35;;;;;;;13.93;10.75;;;18.00;99.90;;;;;;5094073;28;20075;-76
2023/06/16 04:57:01;;;;;;;13.07;10.27;;;18.10;99.90;;;;;;5094080;28;20079;-76
2023/06/16 04:59:27;;;;;;;14.45;9.95;;;18.20;99.90;;;;;;5092883;28;20066;-76
2023/06/16 05:01:52;;;;;;;12.63;9.27;;;18.30;99.90;;;;;;5093985;28;20475;-76
2023/06/16 05:04:18;;;;;;;13.95;10.23;;;18.30;99.90;;;;;;5094059;28;20050;-77
2023/06/16 05:06:44;;;;;;;13.07;9.35;;;18.50;99.90;;;;;;5093658;28;20036;-77
2023/06/16 05:09:10;;;;;;;12.77;8.98;;;18.60;99.90;;;;;;5092545;28;20058;-76
2023/06/16 05:11:36;;;;;;;11.93;9.07;;;18.70;99.90;;;;;;5093649;28;20042;-76
2023/06/16 05:14:01;;;;;;;13.95;9.65;;;18.70;99.90;;;;;;5092259;28;20415;-76
2023/06/16 05:16:27;;;;;;;15.07;10.23;;;18.80;99.90;;;;;;5092330;28;20044;-76
2023/06/16 05:18:53;;;;;;;13.73;9.68;;;18.90;99.90;;;;;;5092664;28;20043;-76
2023/06/16 05:21:24;;;;;;;12.07;10.00;;;19.00;99.90;;;;;;5093792;28;20557;-76
2023/06/16 05:23:53;;;;;;;15.13;11.02;;;19.00;99.90;;;;;;5093593;28;20052;-76
2023/06/16 05:26:25;;;;;;;13.57;10.73;;;19.10;99.90;;;;;;5092510;28;20056;-76
2023/06/16 05:28:50;;;;;;;10.95;9.82;;;19.20;99.90;;;;;;5092362;28;20044;-76
2023/06/16 05:31:16;;;;;;;12.50;9.70;;;19.20;99.90;;;;;;5092226;28;20398;-76
2023/06/16 05:33:42;;;;;;;12.95;9.95;;;19.30;99.90;;;;;;5093718;28;20036;-76
2023/06/16 05:36:07;;;;;;;11.98;10.55;;;19.50;99.90;;;;;;5093372;28;20048;-77
2023/06/16 05:38:33;;;;;;;15.07;9.45;;;19.50;99.90;;;;;;5093344;28;20048;-76
2023/06/16 05:40:59;;;;;;;12.52;8.95;;;19.60;99.90;;;;;;5092314;28;20055;-77
2023/06/16 05:43:25;;;;;;;9.80;8.48;;;19.70;99.90;;;;;;5092326;28;20086;-77
2023/06/16 05:45:50;;;;;;;13.02;9.05;;;19.80;99.90;;;;;;5093550;28;20040;-76
2023/06/16 05:48:16;;;;;;;13.95;8.70;;;19.80;99.90;;;;;;5092069;28;20101;-77
2023/06/16 05:50:42;;;;;;;9.75;8.45;;;19.90;99.90;;;;;;5091958;28;20487;-76
2023/06/16 05:53:07;;;;;;;10.60;8.27;;;20.00;99.90;;;;;;5091955;28;20483;-77
2023/06/16 05:55:33;;;;;;;10.27;9.13;;;20.00;99.90;;;;;;5092273;28;20113;-76
2023/06/16 05:58:00;;;;;;;11.43;8.93;;;20.20;99.90;;;;;;5092144;28;20048;-77
2023/06/16 06:00:26;;;;;;;12.63;8.63;;;20.20;99.90;;;;;;5092375;28;20048;-76
2023/06/16 06:02:52;;;;;;;14.40;9.48;;;20.20;99.90;;;;;;5092728;28;20402;-76
2023/06/16 06:05:18;;;;;;;14.50;9.23;;;20.30;99.90;;;;;;5094989;28;20044;-77
2023/06/16 06:07:44;;;;;;;11.73;8.32;;;20.30;99.90;;;;;;5095213;28;20075;-76
2023/06/16 06:10:10;;;;;;;12.40;8.77;;;20.40;99.90;;;;;;5095670;28;20115;-76
2023/06/16 06:12:37;;;;;;;14.73;8.60;;;20.40;99.90;;;;;;5096205;28;20047;-77
2023/06/16 06:15:03;;;;;;;12.00;8.38;;;20.50;99.90;;;;;;5097149;28;20055;-78
2023/06/16 06:17:28;;;;;;;11.68;8.93;;;20.50;99.90;;;;;;5095965;28;20108;-77
2023/06/16 06:19:54;;;;;;;12.10;8.82;;;20.60;99.90;;;;;;5095895;28;20131;-77
2023/06/16 06:22:20;;;;;;;13.77;8.73;;;20.80;99.90;;;;;;5096777;28;20123;-77
2023/06/16 06:24:48;;;;;;;11.85;9.00;;;20.90;99.90;;;;;;5096661;28;20067;-76
2023/06/16 06:27:14;;;;;;;15.40;9.32;;;21.00;99.90;;;;;;5095398;28;20052;-76
2023/06/16 06:29:40;;;;;;;13.13;8.57;;;21.10;99.90;;;;;;5095496;28;20132;-76
2023/06/16 06:32:07;;;;;;;13.07;7.85;;;21.10;99.90;;;;;;5096520;28;20440;-75
2023/06/16 06:34:34;;;;;;;12.88;8.45;;;21.10;99.90;;;;;;5096618;28;20079;-75
2023/06/16 06:37:00;;;;;;;12.63;7.40;;;21.20;99.90;;;;;;5096624;28;20494;-74
2023/06/16 06:39:26;;;;;;;13.55;7.88;;;21.20;99.90;;;;;;5096400;28;20036;-76
2023/06/16 06:41:51;;;;;;;15.07;8.95;;;21.30;99.90;;;;;;5097077;28;20052;-76
2023/06/16 06:44:17;;;;;;;12.73;8.00;;;21.20;99.90;;;;;;5091335;28;20072;-76
2023/06/16 06:46:43;;;;;;;12.55;7.97;;;21.30;99.90;;;;;;5084817;28;20503;-75
2023/06/16 06:49:08;;;;;;;9.93;7.80;;;21.40;99.90;;;;;;5075924;28;20044;-74
2023/06/16 06:51:34;;;;;;;8.98;7.20;;;21.40;99.90;;;;;;5075784;28;20119;-74
2023/06/16 06:53:59;;;;;;;11.55;6.80;;;21.50;99.90;;;;;;5075925;28;20084;-75
2023/06/16 06:56:25;;;;;;;9.65;6.80;;;21.40;99.90;;;;;;5075630;28;20044;-75
2023/06/16 06:58:51;;;;;;;9.15;6.72;;;21.40;99.90;;;;;;5075832;28;20113;-75
2023/06/16 07:01:17;;;;;;;11.15;7.13;;;21.50;99.90;;;;;;5075522;28;20045;-75
2023/06/16 07:03:42;;;;;;;11.70;7.30;;;21.50;99.90;;;;;;5075712;28;20044;-76
2023/06/16 07:06:09;;;;;;;12.32;6.80;;;21.50;99.90;;;;;;5075585;28;20049;-76
2023/06/16 07:08:35;;;;;;;11.15;6.35;;;21.60;99.90;;;;;;5074197;28;20049;-77
2023/06/16 07:11:00;;;;;;;8.18;6.47;;;21.60;99.90;;;;;;5074403;28;20052;-76
2023/06/16 07:13:26;;;;;;;9.82;6.28;;;21.60;99.90;;;;;;5074437;28;20449;-75
2023/06/16 07:15:52;;;;;;;8.43;6.13;;;21.70;99.90;;;;;;5074634;28;20412;-75
2023/06/16 07:18:18;;;;;;;8.80;6.10;;;21.70;99.90;;;;;;5075648;28;20472;-77
2023/06/16 07:20:43;;;;;;;14.27;5.78;;;21.60;99.90;;;;;;5074203;28;20044;-77
2023/06/16 07:23:09;;;;;;;8.68;6.05;;;21.60;99.90;;;;;;5073690;28;20049;-77
2023/06/16 07:25:38;;;;;;;10.52;6.40;;;21.50;99.90;;;;;;5074223;28;20055;-77
2023/06/16 07:28:07;;;;;;;9.50;5.85;;;21.70;99.90;;;;;;5073823;28;20483;-76
2023/06/16 07:30:33;;;;;;;7.80;5.95;;;21.70;99.90;;;;;;5074948;28;20044;-76
2023/06/16 07:32:59;;;;;;;12.38;6.68;;;21.90;99.90;;;;;;5073722;28;20052;-76
2023/06/16 07:35:24;;;;;;;11.05;6.00;;;22.00;99.90;;;;;;5073727;28;20072;-76
2023/06/16 07:37:50;;;;;;;7.00;5.30;;;22.10;99.90;;;;;;5074702;28;20046;-75
2023/06/16 07:40:16;;;;;;;7.40;5.38;;;22.00;99.90;;;;;;5073854;28;20097;-76
2023/06/16 07:42:45;;;;;;;8.20;5.30;;;22.10;99.90;;;;;;5073761;28;20093;-76
2023/06/16 07:45:12;;;;;;;8.23;5.68;;;22.00;99.90;;;;;;5074864;28;20059;-76
2023/06/16 07:47:41;;;;;;;7.85;5.20;;;22.00;99.90;;;;;;5074968;28;20068;-76
2023/06/16 07:50:08;;;;;;;7.03;5.07;;;22.00;99.90;;;;;;5074894;28;20041;-76
2023/06/16 07:52:34;;;;;;;9.68;5.75;;;22.20;99.90;;;;;;5073524;28;20052;-76
2023/06/16 07:54:59;;;;;;;7.03;5.55;;;22.30;99.90;;;;;;5073359;28;20058;-76
2023/06/16 07:57:25;;;;;;;7.50;5.53;;;22.20;99.90;;;;;;5073234;28;20047;-76
2023/06/16 07:59:53;;;;;;;7.60;5.40;;;22.40;99.90;;;;;;5074521;28;20037;-76
2023/06/16 08:02:18;;;;;;;8.18;5.40;;;22.30;99.90;;;;;;5074353;28;20539;-76
2023/06/16 08:04:45;;;;;;;7.45;4.85;;;22.40;99.90;;;;;;5074368;28;20156;-77
2023/06/16 08:07:10;;;;;;;7.50;5.40;;;22.40;99.90;;;;;;5074196;28;20165;-76
2023/06/16 08:09:36;;;;;;;6.70;5.00;;;22.40;99.90;;;;;;5074108;28;20139;-76
2023/06/16 08:12:02;;;;;;;6.03;4.45;;;22.50;99.90;;;;;;5074272;28;20048;-75
2023/06/16 08:14:30;;;;;;;8.82;5.15;;;22.60;99.90;;;;;;5074138;28;20787;-75
2023/06/16 08:16:55;;;;;;;7.22;5.30;;;22.70;99.90;;;;;;5074438;28;20047;-76
2023/06/16 08:19:21;;;;;;;9.55;5.55;;;22.80;99.90;;;;;;5074120;28;20044;-76
2023/06/16 08:21:47;;;;;;;6.97;5.03;;;22.80;99.90;;;;;;5072653;28;20079;-76
2023/06/16 08:24:13;;;;;;;6.68;4.57;;;22.80;99.90;;;;;;5072443;28;20060;-76
2023/06/16 08:26:39;;;;;;;7.15;4.60;;;22.70;99.90;;;;;;5072127;28;20041;-75
2023/06/16 08:29:05;;;;;;;8.68;4.68;;;22.60;99.90;;;;;;5073900;28;20068;-76
2023/06/16 08:31:32;;;;;;;7.38;4.10;;;22.70;99.90;;;;;;5072974;28;20048;-76
2023/06/16 08:33:59;;;;;;;10.73;4.22;;;22.60;99.90;;;;;;5072426;28;20492;-77
2023/06/16 08:36:25;;;;;;;7.38;4.60;;;22.70;99.90;;;;;;5073758;28;20040;-76
2023/06/16 08:38:52;;;;;;;6.32;4.60;;;22.60;99.90;;;;;;5073936;28;20047;-76
2023/06/16 08:41:18;;;;;;;8.80;4.88;;;22.60;99.90;;;;;;5073760;28;20051;-76
2023/06/16 08:43:50;;;;;;;9.65;4.80;;;22.70;99.90;;;;;;5073509;28;20480;-76
2023/06/16 08:46:16;;;;;;;7.15;4.68;;;22.70;99.90;;;;;;5073971;28;20044;-76
2023/06/16 08:48:42;;;;;;;9.35;4.72;;;22.70;99.90;;;;;;5072442;28;20403;-75
2023/06/16 08:51:13;;;;;;;9.43;4.50;;;22.70;99.90;;;;;;5073443;28;20044;-76
2023/06/16 08:53:40;;;;;;;7.35;4.47;;;22.70;99.90;;;;;;5073719;28;20064;-76
2023/06/16 08:56:07;;;;;;;7.82;4.20;;;22.80;99.90;;;;;;5073606;28;20045;-74
2023/06/16 08:58:37;;;;;;;8.15;4.65;;;22.60;99.90;;;;;;5072503;28;20391;-76
2023/06/16 09:01:04;;;;;;;7.70;4.15;;;22.70;99.90;;;;;;5073650;28;20040;-77
2023/06/16 09:03:33;;;;;;;7.95;4.47;;;22.90;99.90;;;;;;5073327;28;20484;-76
2023/06/16 09:06:00;;;;;;;14.05;5.15;;;23.00;99.90;;;;;;5073511;28;20090;-78
2023/06/16 09:08:26;;;;;;;7.28;4.63;;;22.80;99.90;;;;;;5072428;28;20055;-78
2023/06/16 09:10:55;;;;;;;7.15;4.47;;;23.00;99.90;;;;;;5072241;28;20059;-77
2023/06/16 09:13:21;;;;;;;6.13;4.43;;;23.00;99.90;;;;;;5072180;28;20049;-78
2023/06/16 09:15:49;;;;;;;6.80;4.53;;;23.00;99.90;;;;;;5072385;28;20048;-78
2023/06/16 09:18:15;;;;;;;9.65;4.97;;;23.00;99.90;;;;;;5072406;28;20048;-78
2023/06/16 09:20:52;;;;;;;6.50;4.45;;;23.10;99.90;;;;;;5073448;28;20059;-78
2023/06/16 09:23:29;;;;;;;9.15;5.00;;;23.20;99.90;;;;;;5071976;28;20061;-78
2023/06/16 09:25:55;;;;;;;9.65;5.10;;;23.10;99.90;;;;;;5072088;28;20053;-78
2023/06/16 09:28:34;;;;;;;7.30;4.90;;;23.20;99.90;;;;;;5073297;28;20181;-77
2023/06/16 09:31:11;;;;;;;7.60;4.50;;;23.10;99.90;;;;;;5071294;28;20056;-78
2023/06/16 09:33:37;;;;;;;6.47;4.15;;;23.10;99.90;;;;;;5072307;28;20056;-78
2023/06/16 09:36:03;;;;;;;5.75;4.32;;;23.20;99.90;;;;;;5073458;28;20369;-78
2023/06/16 09:38:36;;;;;;;7.43;4.55;;;23.20;99.90;;;;;;5075864;28;20098;-78
2023/06/16 09:41:11;;;;;;;8.73;4.85;;;23.20;99.90;;;;;;5077587;28;20036;-78
2023/06/16 09:43:41;;;;;;;6.55;4.40;;;23.20;99.90;;;;;;5076044;28;20135;-78
2023/06/16 09:46:11;;;;;;;7.78;4.50;;;23.30;99.90;;;;;;5077314;28;20063;-79
2023/06/16 09:48:47;;;;;;;8.52;4.30;;;23.40;99.90;;;;;;5076458;28;20052;-78
2023/06/16 09:51:17;;;;;;;7.40;4.43;;;23.20;99.90;;;;;;5076066;28;20052;-78
2023/06/16 09:53:45;;;;;;;8.07;4.50;;;23.40;99.90;;;;;;5076105;28;20476;-77
2023/06/16 09:56:14;;;;;;;6.05;4.28;;;23.50;99.90;;;;;;5075796;28;20045;-78
2023/06/16 09:58:40;;;;;;;6.43;4.25;;;23.50;99.90;;;;;;5075754;28;20059;-78
2023/06/16 10:01:06;;;;;;;6.30;4.18;;;23.50;99.90;;;;;;5075659;28;20036;-78
2023/06/16 10:03:33;;;;;;;5.80;4.22;;;23.50;99.90;;;;;;5075977;28;20051;-77
2023/06/16 10:06:04;;;;;;;6.95;3.95;;;23.50;99.90;;;;;;5076787;28;20045;-78
2023/06/16 10:08:31;;;;;;;7.18;4.13;;;23.70;99.90;;;;;;5076830;28;20516;-78
2023/06/16 10:10:57;;;;;;;6.63;3.90;;;23.90;99.90;;;;;;5076585;28;20425;-78
2023/06/16 10:13:26;;;;;;;5.97;4.22;;;23.90;99.90;;;;;;5075785;28;20377;-78
2023/06/16 10:15:52;;;;;;;5.88;3.78;;;23.90;99.90;;;;;;5075548;28;20048;-78
2023/06/16 10:18:20;;;;;;;8.38;4.10;;;24.10;99.90;;;;;;5109422;28;20052;-78
2023/06/16 10:20:47;;;;;;;6.20;4.10;;;24.00;99.90;;;;;;5075636;28;20044;-78
2023/06/16 10:23:13;;;;;;;5.35;4.10;;;23.80;99.90;;;;;;5076574;28;20060;-78
2023/06/16 10:25:40;;;;;;;5.30;3.28;;;23.80;99.90;;;;;;5075321;28;20056;-78
2023/06/16 10:28:10;;;;;;;5.22;3.85;;;23.80;99.90;;;;;;5076597;28;20032;-78
2023/06/16 10:30:38;;;;;;;7.75;4.00;;;23.80;99.90;;;;;;5075151;28;20053;-78
2023/06/16 10:33:20;;;;;;;5.35;3.60;;;24.00;99.90;;;;;;5075295;28;20178;-78
2023/06/16 10:35:53;;;;;;;6.55;3.30;;;23.90;99.90;;;;;;5076293;28;20044;-78
2023/06/16 10:38:24;;;;;;;6.22;3.40;;;24.10;99.90;;;;;;5075105;28;20044;-77
2023/06/16 10:40:55;;;;;;;6.95;3.60;;;24.10;99.90;;;;;;5074963;28;20515;-78
2023/06/16 10:43:27;;;;;;;6.72;3.83;;;24.10;99.90;;;;;;5075158;28;20557;-78
2023/06/16 10:46:18;;;;;;;6.70;3.63;;;24.20;99.90;;;;;;5075203;28;20044;-78
2023/06/16 10:49:05;;;;;;;8.75;3.40;;;24.30;99.90;;;;;;5074141;28;20051;-78
2023/06/16 10:51:48;;;;;;;6.68;3.40;;;24.20;99.90;;;;;;5074804;28;20079;-78
2023/06/16 10:54:36;;;;;;;8.60;3.70;;;24.40;99.90;;;;;;5075000;28;20048;-78
2023/06/16 10:57:07;;;;;;;5.82;3.35;;;24.30;99.90;;;;;;5076159;28;20052;-78
2023/06/16 10:59:54;;;;;;;8.30;4.03;;;24.40;99.90;;;;;;5075824;28;20044;-78
2023/06/16 11:02:22;;;;;;;8.05;3.75;;;24.40;99.90;;;;;;5074864;28;20049;-78
2023/06/16 11:05:18;;;;;;;6.97;3.50;;;24.20;99.90;;;;;;5074557;28;20040;-78
2023/06/16 11:08:08;;;;;;;9.35;3.72;;;24.30;99.90;;;;;;5058665;28;20098;-78
2023/06/16 11:10:49;;;;;;;7.28;3.90;;;24.40;99.90;;;;;;5062645;28;20056;-78
2023/06/16 11:13:17;;;;;;;6.45;3.28;;;24.50;99.90;;;;;;5074628;28;20051;-78
2023/06/16 11:15:43;;;;;;;4.70;3.17;;;24.30;99.90;;;;;;5074562;28;20044;-77
2023/06/16 11:18:10;;;;;;;7.75;3.85;;;24.40;99.90;;;;;;5074498;28;20500;-78
2023/06/16 11:20:36;;;;;;;7.20;3.72;;;24.40;99.90;;;;;;5074196;28;20076;-78
2023/06/16 11:23:02;;;;;;;9.65;3.63;;;24.60;99.90;;;;;;5074163;28;20099;-77
2023/06/16 11:25:29;;;;;;;6.68;3.55;;;24.70;99.90;;;;;;5075608;28;20044;-79
2023/06/16 11:27:55;;;;;;;6.68;3.15;;;24.80;99.90;;;;;;5074403;28;20068;-78
2023/06/16 11:30:21;;;;;;;7.57;3.67;;;24.90;99.90;;;;;;5073926;28;20048;-78
2023/06/16 11:32:48;;;;;;;6.20;3.38;;;24.80;99.90;;;;;;5073993;28;20048;-78
2023/06/16 11:35:13;;;;;;;7.55;4.00;;;24.50;99.90;;;;;;5074174;28;20044;-77
2023/06/16 11:37:40;;;;;;;8.35;3.55;;;24.70;99.90;;;;;;5075330;28;20041;-78
2023/06/16 11:40:07;;;;;;;6.78;3.92;;;24.50;99.90;;;;;;5074144;28;20044;-78
2023/06/16 11:42:33;;;;;;;5.90;3.72;;;24.50;99.90;;;;;;5073791;28;20037;-78
2023/06/16 11:44:59;;;;;;;6.80;4.10;;;24.50;99.90;;;;;;5073746;28;20052;-77
2023/06/16 11:47:25;;;;;;;7.85;3.80;;;24.70;99.90;;;;;;5075115;28;20086;-78
2023/06/16 11:49:51;;;;;;;7.43;4.55;;;24.60;99.90;;;;;;5074951;28;20123;-79
2023/06/16 11:52:18;;;;;;;6.90;3.90;;;24.50;99.90;;;;;;5073848;28;20199;-79
2023/06/16 11:54:43;;;;;;;7.78;4.03;;;24.40;99.90;;;;;;5073528;28;20044;-78
2023/06/16 11:57:09;;;;;;;6.38;3.40;;;24.30;99.90;;;;;;5073587;28;20045;-79
2023/06/16 11:59:35;;;;;;;6.53;3.72;;;24.20;99.90;;;;;;5073741;28;20037;-78
2023/06/16 12:02:02;;;;;;;6.10;4.20;;;24.20;99.90;;;;;;5074734;28;20044;-78
2023/06/16 12:04:29;;;;;;;9.00;3.95;;;24.20;99.90;;;;;;5107426;28;20124;-78
2023/06/16 12:06:56;;;;;;;5.75;3.92;;;24.10;99.90;;;;;;5074790;28;20044;-77
2023/06/16 12:09:24;;;;;;;5.97;3.65;;;24.20;99.90;;;;;;5074541;28;20055;-78
2023/06/16 12:11:52;;;;;;;7.80;3.75;;;24.30;99.90;;;;;;5073454;28;20048;-78
2023/06/16 12:14:22;;;;;;;6.35;4.15;;;24.30;99.90;;;;;;5073242;28;20048;-78
2023/06/16 12:16:52;;;;;;;8.18;4.10;;;24.20;99.90;;;;;;5074641;28;20090;-78
2023/06/16 12:19:21;;;;;;;6.07;3.65;;;24.40;99.90;;;;;;5074236;28;20415;-78
2023/06/16 12:21:51;;;;;;;6.20;3.70;;;24.30;99.90;;;;;;5072981;28;20491;-78
2023/06/16 12:24:21;;;;;;;7.70;3.88;;;24.20;99.90;;;;;;5072754;28;20060;-78
2023/06/16 12:26:51;;;;;;;7.75;4.15;;;24.20;99.90;;;;;;5072939;28;20499;-78
2023/06/16 12:29:17;;;;;;;7.55;3.58;;;24.20;99.90;;;;;;5073011;28;20048;-78
2023/06/16 12:31:51;;;;;;;7.50;3.90;;;24.10;99.90;;;;;;5072746;28;20045;-78
2023/06/16 12:34:32;;;;;;;7.63;3.40;;;24.10;99.90;;;;;;5073074;28;20044;-78
2023/06/16 12:37:10;;;;;;;8.65;3.88;;;24.20;99.90;;;;;;5072734;28;20098;-78
2023/06/16 12:39:37;;;;;;;11.43;4.07;;;24.30;99.90;;;;;;5074168;28;20044;-78
2023/06/16 12:42:02;;;;;;;6.38;3.60;;;24.40;99.90;;;;;;5073771;28;20048;-78